Latest Weather Observations for Cape Bruny AWS

IDT60901

Issued at 12:05 pm EST Friday 22 August 2014 (issued every 10 minutes, with the page automatically refreshed every 10 minutes)

About weather observations | Map of Hobart area stations | Latest observations for Hobart area | Other Formats
Station Details ID: 094198 Name: CAPE BRUNY (CAPE BRUNY) Lat: -43.49 Lon: 147.14 Height: 59.7 m
Data from the previous 72 hours. | See also: Recent months at Cape Bruny AWS
Date/Time
EST
Tmp

°C
App
Tmp
°C
Dew
Point
°C
Rel
Hum
%
Delta-T

°C
Wind Press
QNH
hPa
Press
MSL
hPa
Rain
since
9 am
mm
Dir
 
Spd
km/h
Gust
km/h
Spd
kts
Gust
kts
22/12:00pm 14.5 10.1 6.6 59 3.8 NNE 19 26 10 14 1031.3 1031.4 0.0
22/11:30am 13.7 9.6 6.1 60 3.6 NNE 17 26 9 14 1031.7 - 0.0
22/11:00am 13.5 9.5 6.8 64 3.2 NNE 17 24 9 13 1032.1 1032.2 0.0
22/10:30am 12.8 8.9 7.3 69 2.7 NE 17 22 9 12 1032.4 - 0.0
22/10:00am 11.6 9.0 7.9 78 1.8 NE 11 17 6 9 1032.5 1032.6 0.0
22/09:30am 10.3 7.1 6.8 79 1.7 NNE 13 17 7 9 1032.7 - 0.0
22/09:00am 9.5 5.9 6.9 84 1.2 NNE 15 20 8 11 1032.7 1032.8 0.2
22/08:30am 8.7 5.1 6.8 88 0.9 NNE 15 20 8 11 1032.5 - 0.2
22/08:00am 7.9 3.9 6.5 91 0.6 NNE 17 20 9 11 1032.5 1032.6 0.2
22/07:30am 7.1 2.4 6.0 93 0.5 N 20 22 11 12 1032.2 - 0.2
22/07:00am 6.6 1.8 5.6 93 0.4 N 20 24 11 13 1032.0 1032.1 0.2
22/06:30am 6.8 2.0 5.6 92 0.5 N 20 24 11 13 1032.0 - 0.2
22/06:00am 7.1 2.5 5.7 91 0.6 N 19 22 10 12 1031.9 1032.0 0.0
22/05:30am 7.0 2.4 5.8 92 0.5 N 19 24 10 13 1031.9 - 0.0
22/05:00am 7.0 2.8 5.6 91 0.6 N 17 22 9 12 1031.8 1031.9 0.0
22/04:30am 7.5 3.0 6.1 91 0.6 N 19 22 10 12 1031.7 - 0.0
22/04:00am 7.7 3.6 6.3 91 0.6 N 17 24 9 13 1031.5 1031.6 0.0
22/03:30am 7.6 3.2 6.4 92 0.5 N 19 24 10 13 1031.3 - 0.0
22/03:00am 7.7 3.3 6.5 92 0.5 N 19 24 10 13 1031.3 1031.4 0.0
22/02:30am 7.8 3.2 6.6 92 0.6 NNE 20 24 11 13 1031.4 - 0.0
22/02:00am 7.7 3.2 6.3 91 0.6 NNE 19 24 10 13 1031.6 1031.7 0.0
22/01:30am 7.9 3.3 6.5 91 0.6 NNE 20 24 11 13 1031.8 - 0.0
22/01:00am 7.8 3.4 6.4 91 0.6 NNE 19 24 10 13 1031.8 1031.9 0.0
22/12:30am 7.9 3.5 6.5 91 0.6 NNE 19 26 10 14 1031.9 - 0.0
22/12:00am 8.2 3.8 6.5 89 0.8 NNE 19 26 10 14 1032.0 1032.1 0.0
 
Date/Time
EST
Tmp

°C
App
Tmp
°C
Dew
Point
°C
Rel
Hum
%
Delta-T

°C
Wind Press
QNH
hPa
Press
MSL
hPa
Rain
since
9 am
mm
Dir
 
Spd
km/h
Gust
km/h
Spd
kts
Gust
kts
21/11:30pm 8.7 4.2 7.0 89 0.8 NNE 20 28 11 15 1031.9 - 0.0
21/11:00pm 8.8 4.5 6.8 87 0.9 NNE 19 24 10 13 1031.9 1032.0 0.0
21/10:30pm 8.3 4.7 6.6 89 0.8 NNE 15 20 8 11 1032.0 - 0.0
21/10:00pm 7.6 5.3 5.6 87 0.9 NNE 7 11 4 6 1032.2 1032.3 0.0
21/09:30pm 7.8 6.1 6.1 89 0.8 N 4 9 2 5 1032.3 - 0.0
21/09:00pm 7.9 5.7 6.0 88 0.9 WNW 7 11 4 6 1032.4 1032.5 0.0
21/08:30pm 8.0 5.8 6.0 87 0.9 WNW 7 9 4 5 1032.3 - 0.0
21/08:00pm 8.3 5.8 6.6 89 0.8 WNW 9 13 5 7 1032.2 1032.3 0.0
21/07:30pm 8.5 6.0 6.5 87 0.9 WNW 9 11 5 6 1032.1 - 0.0
21/07:00pm 8.5 5.5 6.0 84 1.1 NW 11 11 6 6 1032.0 1032.1 0.0
21/06:30pm 8.6 6.2 5.2 79 1.5 WNW 7 9 4 5 1031.8 - 0.0
21/06:00pm 9.2 7.1 5.6 78 1.6 W 6 7 3 4 1031.6 1031.7 0.0
21/05:30pm 10.3 8.3 6.3 76 1.9 W 6 9 3 5 1031.4 - 0.0
21/05:00pm 11.6 9.2 6.9 73 2.2 WNW 9 9 5 5 1031.2 1031.3 0.0
21/04:30pm 12.2 10.0 6.3 67 2.8 SSW 7 9 4 5 1031.0 - 0.0
21/04:00pm 12.4 10.4 7.1 70 2.5 S 7 7 4 4 1030.9 1031.0 0.0
21/03:30pm 12.4 9.9 6.7 68 2.7 S 9 13 5 7 1030.8 - 0.0
21/03:00pm 12.7 10.0 7.2 69 2.6 S 11 13 6 7 1030.8 1030.9 0.0
21/02:30pm 12.9 10.3 7.8 71 2.5 SE 11 15 6 8 1030.9 - 0.0
21/02:00pm 12.7 9.6 7.4 70 2.6 S 13 17 7 9 1031.0 1031.1 0.0
21/01:30pm 14.3 12.0 7.4 63 3.4 N 9 17 5 9 1031.1 - 0.0
21/01:00pm 13.8 10.4 5.9 59 3.7 NNE 13 20 7 11 1031.3 1031.4 0.0
21/12:30pm 13.0 9.3 6.4 64 3.2 NNE 15 20 8 11 1031.5 - 0.0
21/12:00pm 12.8 9.3 7.0 68 2.8 NNE 15 22 8 12 1031.7 1031.8 0.0
21/11:30am 12.1 8.1 6.6 69 2.6 NNE 17 24 9 13 1032.0 - 0.0
21/11:00am 11.5 6.9 6.4 71 2.4 N 20 26 11 14 1032.2 1032.3 0.0
21/10:30am 10.8 6.3 6.2 73 2.2 NNE 19 28 10 15 1032.4 - 0.0
21/10:00am 10.1 6.0 6.4 78 1.7 NNE 17 22 9 12 1032.5 1032.6 0.0
21/09:30am 9.2 4.7 6.1 81 1.4 N 19 26 10 14 1032.5 - 0.0
21/09:00am 9.3 5.7 6.6 83 1.2 N 15 20 8 11 1032.5 1032.6 0.0
21/08:30am 8.5 5.2 6.6 88 0.9 N 13 17 7 9 1032.5 - 0.0
21/08:00am 7.8 4.5 6.4 91 0.6 N 13 19 7 10 1032.3 1032.4 0.0
21/07:30am 7.2 3.8 6.1 93 0.5 N 13 17 7 9 1031.9 - 0.0
21/07:00am 6.9 3.1 5.8 93 0.5 N 15 17 8 9 1031.5 1031.6 0.0
21/06:30am 6.8 3.3 5.6 92 0.5 NNE 13 15 7 8 1031.1 - 0.0
21/06:00am 7.0 3.9 5.6 91 0.6 N 11 15 6 8 1030.9 1031.0 0.0
21/05:30am 7.4 4.0 5.9 90 0.7 N 13 15 7 8 1030.8 - 0.0
21/05:00am 8.1 5.2 6.6 90 0.7 N 11 15 6 8 1030.9 1031.0 0.0
21/04:30am 8.2 5.3 6.7 90 0.7 NNE 11 13 6 7 1030.7 - 0.0
21/04:00am 8.2 4.6 6.7 90 0.7 N 15 17 8 9 1030.3 1030.4 0.0
21/03:30am 8.1 4.8 6.6 90 0.7 N 13 17 7 9 1030.1 - 0.0
21/03:00am 8.1 4.5 6.6 90 0.7 N 15 19 8 10 1030.0 1030.1 0.0
21/02:30am 8.1 4.5 6.7 91 0.6 N 15 19 8 10 1030.1 - 0.0
21/02:00am 8.3 4.7 6.9 91 0.6 N 15 17 8 9 1030.2 1030.3 0.0
21/01:30am 8.3 4.3 6.8 90 0.7 N 17 19 9 10 1030.1 - 0.0
21/01:00am 8.4 4.4 6.7 89 0.8 N 17 20 9 11 1030.0 1030.1 0.0
21/12:30am 8.4 5.2 6.7 89 0.8 N 13 19 7 10 1030.2 - 0.0
21/12:00am 8.4 5.1 6.5 88 0.9 N 13 17 7 9 1030.2 1030.3 0.0
 
Date/Time
EST
Tmp

°C
App
Tmp
°C
Dew
Point
°C
Rel
Hum
%
Delta-T

°C
Wind Press
QNH
hPa
Press
MSL
hPa
Rain
since
9 am
mm
Dir
 
Spd
km/h
Gust
km/h
Spd
kts
Gust
kts
20/11:30pm 8.6 6.4 6.1 84 1.1 WNW 7 9 4 5 1030.0 - 0.0
20/11:00pm 8.7 6.1 6.2 84 1.1 WNW 9 13 5 7 1030.0 1030.1 0.0
20/10:30pm 8.6 5.7 6.7 88 0.9 WNW 11 13 6 7 1030.0 - 0.0
20/10:00pm 8.4 5.5 6.5 88 0.9 WNW 11 13 6 7 1029.9 1030.0 0.0
20/09:30pm 8.7 6.2 6.5 86 1.0 NW 9 13 5 7 1029.5 - 0.0
20/09:00pm 9.1 5.8 6.2 82 1.3 WSW 13 15 7 8 1029.4 1029.5 0.0
20/08:30pm 9.2 5.0 5.9 80 1.5 SW 17 24 9 13 1029.2 - 0.0
20/08:00pm 9.5 5.4 6.2 80 1.5 SW 17 26 9 14 1029.0 1029.1 0.0
20/07:30pm 9.4 5.2 5.9 79 1.6 SW 17 24 9 13 1028.8 - 0.0
20/07:00pm 9.6 5.1 6.1 79 1.6 SW 19 24 10 13 1028.5 1028.6 0.0
20/06:30pm 9.5 5.3 5.9 78 1.7 SW 17 24 9 13 1028.2 - 0.0
20/06:00pm 9.6 5.5 6.1 79 1.6 SW 17 26 9 14 1027.8 1027.9 0.0
20/05:30pm 9.7 5.5 5.9 77 1.8 SW 17 24 9 13 1027.4 - 0.0
20/05:00pm 10.4 5.6 5.8 73 2.1 SW 20 28 11 15 1027.2 1027.3 0.0
20/04:30pm 11.0 6.3 6.2 72 2.2 SW 20 30 11 16 1027.0 - 0.0
20/04:00pm 11.0 5.2 6.2 72 2.2 SW 26 35 14 19 1026.8 1026.9 0.0
20/03:30pm 11.0 5.7 6.6 74 2.1 SW 24 33 13 18 1026.7 - 0.0
20/03:00pm 11.4 5.6 6.3 71 2.4 SW 26 33 14 18 1026.4 1026.5 0.0
20/02:30pm 11.3 4.7 6.2 71 2.4 SW 30 37 16 20 1026.3 - 0.0
20/02:00pm 12.0 6.4 5.2 63 3.1 SW 24 32 13 17 1026.3 1026.4 0.0
20/01:30pm 12.3 7.7 6.4 67 2.8 SW 20 30 11 16 1026.1 - 0.0
20/01:00pm 12.4 7.8 6.5 67 2.8 SW 20 30 11 16 1026.0 1026.1 0.0
20/12:30pm 11.8 7.1 6.1 68 2.7 SW 20 28 11 15 1026.2 - 0.0
20/12:00pm 11.4 5.7 4.8 64 3.0 WSW 24 33 13 18 1026.2 1026.3 0.0
20/11:30am 11.7 8.0 6.2 69 2.6 W 15 22 8 12 1026.4 - 0.0
20/11:00am 12.2 8.9 6.5 68 2.7 WNW 13 17 7 9 1026.4 1026.5 0.0
20/10:30am 11.7 8.0 6.4 70 2.5 W 15 19 8 10 1026.3 - 0.0
20/10:00am 10.8 7.4 5.8 71 2.3 W 13 19 7 10 1026.2 1026.3 0.0
20/09:30am 10.5 7.9 6.3 75 2.0 WNW 9 13 5 7 1026.0 - 0.0
20/09:00am 10.0 5.9 6.3 78 1.7 W 17 20 9 11 1025.8 1025.9 0.0
20/08:30am 9.0 5.9 5.6 79 1.5 W 11 15 6 8 1025.6 - 0.0
20/08:00am 8.6 5.9 5.4 80 1.4 W 9 15 5 8 1025.2 1025.3 0.0
20/07:30am 7.5 5.0 4.6 82 1.3 W 7 11 4 6 1025.0 - 0.0
20/07:00am 7.8 4.2 5.1 83 1.2 W 13 19 7 10 1024.5 1024.6 0.0
20/06:30am 7.4 4.5 4.9 84 1.1 W 9 17 5 9 1024.3 - 0.0
20/06:00am 7.9 3.5 4.8 81 1.4 W 17 20 9 11 1024.0 1024.1 0.0
20/05:30am 8.3 4.0 5.4 82 1.3 W 17 20 9 11 1023.9 - 0.0
20/05:00am 7.7 4.9 5.2 84 1.1 WNW 9 15 5 8 1023.7 1023.8 0.0
20/04:30am 7.7 4.9 5.2 84 1.1 NW 9 17 5 9 1023.7 - 0.0
20/04:00am 7.9 4.3 4.8 81 1.4 NW 13 17 7 9 1023.6 1023.7 0.0
20/03:30am 8.8 3.6 5.5 80 1.5 W 22 28 12 15 1023.7 - 0.0
20/03:00am 8.0 3.1 5.3 83 1.2 W 20 28 11 15 1023.5 1023.6 0.0
20/02:30am 8.0 2.5 5.8 86 1.0 W 24 32 13 17 1023.6 - 0.0
20/02:00am 8.6 0.7 6.1 84 1.1 W 37 46 20 25 1023.6 1023.7 0.0
20/01:30am 8.5 1.8 5.8 83 1.2 W 30 37 16 20 1023.6 - 0.0
20/01:00am 8.7 2.4 5.6 81 1.4 W 28 37 15 20 1023.6 1023.7 0.0
20/12:30am 8.5 2.6 5.6 82 1.3 W 26 33 14 18 1023.6 - 0.0
20/12:00am 8.3 5.1 4.9 79 1.5 W 11 13 6 7 1023.6 1023.7 0.0
 
Date/Time
EST
Tmp

°C
App
Tmp
°C
Dew
Point
°C
Rel
Hum
%
Delta-T

°C
Wind Press
QNH
hPa
Press
MSL
hPa
Rain
since
9 am
mm
Dir
 
Spd
km/h
Gust
km/h
Spd
kts
Gust
kts
19/11:30pm 8.5 3.8 5.3 80 1.4 W 19 26 10 14 1023.4 - 0.0
19/11:00pm 8.3 3.4 5.1 80 1.4 W 20 28 11 15 1023.4 1023.5 0.0
19/10:30pm 8.6 4.3 5.2 79 1.5 W 17 24 9 13 1023.4 - 0.0
19/10:00pm 8.3 4.2 4.1 75 1.8 W 15 20 8 11 1023.4 1023.5 0.0
19/09:30pm 8.6 4.5 4.6 76 1.8 W 15 20 8 11 1023.5 - 0.0
19/09:00pm 8.3 4.7 4.9 79 1.5 W 13 17 7 9 1023.4 1023.5 0.0
19/08:30pm 8.0 4.3 4.4 78 1.6 WNW 13 15 7 8 1023.3 - 0.0
19/08:00pm 8.5 4.5 4.9 78 1.6 W 15 19 8 10 1023.1 1023.2 0.0
19/07:30pm 8.5 3.7 4.9 78 1.6 WNW 19 24 10 13 1023.0 - 0.0
19/07:00pm 8.4 3.8 5.5 82 1.3 W 19 24 10 13 1022.8 1022.9 0.0
19/06:30pm 8.7 2.3 5.4 80 1.5 WSW 28 33 15 18 1022.4 - 0.0
19/06:00pm 9.0 3.4 5.4 78 1.6 WSW 24 30 13 16 1022.2 1022.3 0.0
19/05:30pm 9.3 2.5 5.1 75 1.9 WSW 30 39 16 21 1022.0 - 0.0
19/05:00pm 9.7 2.0 5.3 74 2.0 WSW 35 46 19 25 1021.9 1022.0 0.0
19/04:30pm 9.3 2.2 5.7 78 1.6 WSW 32 41 17 22 1021.8 - 0.0
19/04:00pm 9.3 2.3 6.2 81 1.4 WSW 32 43 17 23 1021.7 1021.8 0.0
19/03:30pm 11.5 4.5 5.8 68 2.7 W 32 39 17 21 1021.5 - 0.0
19/03:00pm 10.4 3.7 5.6 72 2.2 W 30 41 16 22 1021.5 1021.6 0.0
19/02:30pm 10.3 4.5 6.3 76 1.9 WSW 26 33 14 18 1021.6 - 0.0
19/02:00pm 11.1 5.7 6.5 73 2.2 W 24 30 13 16 1021.7 1021.8 0.0
19/01:30pm 11.7 8.2 7.0 73 2.3 W 15 20 8 11 1021.7 - 0.0
19/01:00pm 11.9 7.7 7.4 74 2.2 W 19 24 10 13 1021.9 1022.0 0.0
19/12:30pm 10.9 7.8 7.2 78 1.8 W 13 20 7 11 1022.4 - 0.0

Latest Capital City Observations: Canberra | Sydney | Melbourne | Brisbane | Adelaide | Perth | Hobart | Darwin

Other Formats:

Comma delimited format used in spreadsheet applications
http://www.bom.gov.au/fwo/IDT60901/IDT60901.95967.axf

JavaScript Object Notation format (JSON) in row-major order
http://www.bom.gov.au/fwo/IDT60901/IDT60901.95967.json